createdAt,value
2023-02-28T00:01:09.167Z,5.97
2023-02-28T00:03:35.979Z,4.03
2023-02-28T00:06:05.089Z,6.45
2023-02-28T00:08:32.075Z,6.03
2023-02-28T00:11:02.926Z,5.47
2023-02-28T00:13:29.803Z,8.38
2023-02-28T00:16:00.659Z,4.32
2023-02-28T00:18:29.040Z,3.90
2023-02-28T00:20:56.500Z,8.77
2023-02-28T00:23:24.652Z,7.90
2023-02-28T00:25:52.015Z,6.43
2023-02-28T00:28:19.164Z,7.15
2023-02-28T00:30:45.924Z,6.05
2023-02-28T00:33:12.932Z,5.10
2023-02-28T00:35:39.784Z,6.25
2023-02-28T00:38:08.836Z,6.75
2023-02-28T00:40:36.887Z,5.43
2023-02-28T00:43:03.523Z,6.63
2023-02-28T00:45:30.412Z,7.63
2023-02-28T00:47:57.695Z,7.28
2023-02-28T00:50:24.440Z,4.80
2023-02-28T00:52:51.145Z,5.93
2023-02-28T00:55:17.945Z,5.55
2023-02-28T00:57:46.170Z,9.68
2023-02-28T01:00:13.826Z,5.18
2023-02-28T01:02:40.508Z,6.75
2023-02-28T01:05:09.048Z,5.85
2023-02-28T01:07:35.662Z,8.48
2023-02-28T01:10:02.394Z,6.13
2023-02-28T01:12:30.895Z,6.55
2023-02-28T01:14:59.119Z,6.07
2023-02-28T01:17:25.686Z,7.85
2023-02-28T01:19:54.242Z,4.18
2023-02-28T01:22:20.964Z,7.97
2023-02-28T01:24:48.452Z,7.55
2023-02-28T01:27:15.131Z,7.68
2023-02-28T01:29:41.918Z,5.88
2023-02-28T01:32:11.171Z,9.00
2023-02-28T01:34:37.998Z,8.07
2023-02-28T01:37:04.871Z,7.22
2023-02-28T01:39:31.509Z,9.90
2023-02-28T01:41:58.131Z,5.40
2023-02-28T01:44:57.780Z,5.43
2023-02-28T01:47:30.247Z,5.97
2023-02-28T01:49:58.436Z,6.18
2023-02-28T01:52:25.333Z,7.30
2023-02-28T01:54:57.776Z,6.85
2023-02-28T01:57:29.632Z,5.05
2023-02-28T01:59:59.800Z,8.73
2023-02-28T02:02:29.929Z,5.97
2023-02-28T02:05:01.805Z,7.93
2023-02-28T02:07:33.290Z,7.68
2023-02-28T02:10:06.305Z,7.65
2023-02-28T02:12:48.580Z,9.32
2023-02-28T02:15:22.419Z,5.50
2023-02-28T02:17:53.347Z,7.88
2023-02-28T02:21:00.162Z,9.15
2023-02-28T02:23:46.107Z,9.10
2023-02-28T02:26:43.467Z,6.45
2023-02-28T02:29:45.881Z,5.72
2023-02-28T02:32:29.591Z,9.02
2023-02-28T02:35:03.966Z,6.47
2023-02-28T02:37:39.544Z,7.95
2023-02-28T02:40:14.698Z,8.30
2023-02-28T02:42:48.788Z,6.32
2023-02-28T02:45:22.604Z,8.27
2023-02-28T02:47:51.649Z,6.45
2023-02-28T02:50:25.477Z,6.95
2023-02-28T02:52:56.603Z,4.97
2023-02-28T02:55:24.557Z,9.15
2023-02-28T02:57:54.748Z,7.35
2023-02-28T03:00:25.976Z,8.48
2023-02-28T03:02:54.329Z,6.95
2023-02-28T03:05:26.244Z,5.30
2023-02-28T03:07:52.870Z,6.45
2023-02-28T03:10:33.229Z,8.77
2023-02-28T03:13:26.061Z,8.02
2023-02-28T03:16:06.746Z,12.50
2023-02-28T03:18:48.155Z,6.97
2023-02-28T03:21:26.481Z,5.97
2023-02-28T03:24:03.247Z,7.28
2023-02-28T03:26:30.577Z,5.72
2023-02-28T03:29:03.985Z,7.05
2023-02-28T03:31:33.807Z,10.88
2023-02-28T03:34:05.006Z,7.40
2023-02-28T03:36:37.311Z,5.85
2023-02-28T03:39:08.097Z,6.18
2023-02-28T03:41:39.376Z,8.38
2023-02-28T03:44:11.634Z,5.60
2023-02-28T03:46:47.701Z,6.88
2023-02-28T03:49:19.506Z,8.15
2023-02-28T03:51:49.832Z,6.57
2023-02-28T03:54:20.152Z,6.70
2023-02-28T03:56:50.223Z,8.10
2023-02-28T03:59:22.973Z,7.72
2023-02-28T04:01:50.474Z,8.15
2023-02-28T04:04:18.731Z,10.98
2023-02-28T04:06:46.900Z,9.88
2023-02-28T04:09:15.416Z,8.43
2023-02-28T04:11:44.974Z,6.07
2023-02-28T04:14:13.074Z,6.88
2023-02-28T04:16:41.696Z,6.88
2023-02-28T04:19:09.900Z,7.25
2023-02-28T04:21:38.242Z,6.97
2023-02-28T04:24:07.509Z,8.10
2023-02-28T04:26:35.638Z,8.90
2023-02-28T04:29:03.925Z,10.98
2023-02-28T04:31:30.816Z,7.22
2023-02-28T04:33:57.850Z,12.40
2023-02-28T04:36:24.436Z,8.23
2023-02-28T04:38:51.095Z,9.75
2023-02-28T04:41:19.130Z,8.52
2023-02-28T04:43:45.777Z,7.20
2023-02-28T04:46:12.299Z,9.73
2023-02-28T04:48:40.256Z,9.18
2023-02-28T04:51:09.935Z,6.55
2023-02-28T04:53:38.462Z,8.00
2023-02-28T04:56:05.906Z,9.65
2023-02-28T04:58:34.297Z,9.60
2023-02-28T05:01:06.149Z,7.18
2023-02-28T05:03:32.771Z,7.75
2023-02-28T05:05:59.349Z,9.27
2023-02-28T05:08:26.106Z,8.95
2023-02-28T05:10:52.642Z,6.63
2023-02-28T05:13:19.227Z,9.15
2023-02-28T05:15:47.233Z,8.90
2023-02-28T05:18:14.158Z,8.52
2023-02-28T05:20:40.816Z,7.88
2023-02-28T05:23:07.521Z,8.18
2023-02-28T05:25:34.071Z,10.48
2023-02-28T05:28:00.789Z,9.68
2023-02-28T05:30:27.612Z,6.80
2023-02-28T05:32:55.641Z,7.68
2023-02-28T05:35:22.252Z,7.13
2023-02-28T05:37:48.920Z,6.65
2023-02-28T05:40:15.552Z,7.82
2023-02-28T05:42:42.267Z,11.20
2023-02-28T05:45:10.335Z,7.78
2023-02-28T05:47:36.935Z,9.73
2023-02-28T05:50:06.430Z,5.95
2023-02-28T05:52:33.123Z,8.77
2023-02-28T05:54:59.779Z,7.30
2023-02-28T05:57:26.347Z,13.15
2023-02-28T05:59:53.023Z,6.13
2023-02-28T06:02:19.675Z,8.23
2023-02-28T06:04:46.860Z,8.48
2023-02-28T06:07:14.851Z,8.48
2023-02-28T06:09:41.483Z,8.32
2023-02-28T06:12:08.255Z,9.40
2023-02-28T06:14:35.523Z,7.68
2023-02-28T06:17:02.894Z,7.97
2023-02-28T06:19:29.883Z,8.77
2023-02-28T06:21:57.293Z,9.35
2023-02-28T06:24:26.484Z,6.63
2023-02-28T06:26:53.037Z,9.38
2023-02-28T06:29:19.830Z,8.98
2023-02-28T06:31:47.068Z,7.40
2023-02-28T06:34:14.475Z,8.35
2023-02-28T06:36:42.659Z,7.93
2023-02-28T06:39:10.267Z,7.80
2023-02-28T06:41:53.283Z,7.97
2023-02-28T06:44:22.081Z,10.52
2023-02-28T06:46:49.053Z,6.68
2023-02-28T06:49:16.588Z,13.35
2023-02-28T06:51:44.837Z,8.13
2023-02-28T06:54:12.162Z,8.00
2023-02-28T06:56:40.445Z,6.78
2023-02-28T06:59:07.163Z,9.45
2023-02-28T07:01:33.947Z,5.97
2023-02-28T07:04:01.242Z,8.43
2023-02-28T07:06:28.542Z,7.40
2023-02-28T07:08:55.689Z,7.72
2023-02-28T07:11:23.750Z,12.48
2023-02-28T07:13:52.065Z,8.60
2023-02-28T07:16:18.967Z,8.27
2023-02-28T07:18:45.562Z,9.52
2023-02-28T07:21:12.738Z,9.48
2023-02-28T07:23:39.830Z,9.50
2023-02-28T07:26:07.308Z,10.15
2023-02-28T07:28:34.033Z,10.65
2023-02-28T07:31:06.705Z,22.35
2023-02-28T07:33:33.738Z,14.38
2023-02-28T07:36:04.848Z,11.27
2023-02-28T07:38:31.677Z,16.10
2023-02-28T07:40:58.241Z,8.30
2023-02-28T07:43:24.914Z,8.35
2023-02-28T07:45:51.534Z,8.15
2023-02-28T07:48:19.567Z,7.20
2023-02-28T07:50:46.151Z,11.32
2023-02-28T07:53:12.743Z,6.60
2023-02-28T07:55:39.247Z,8.57
2023-02-28T07:58:05.799Z,8.85
2023-02-28T08:00:32.457Z,6.38
2023-02-28T08:02:59.219Z,9.25
2023-02-28T08:05:27.228Z,5.60
2023-02-28T08:07:53.741Z,6.65
2023-02-28T08:10:20.373Z,7.22
2023-02-28T08:12:46.961Z,7.72
2023-02-28T08:15:13.608Z,4.50
2023-02-28T08:17:40.317Z,6.60
2023-02-28T08:20:08.567Z,3.55
2023-02-28T08:22:36.559Z,4.43
2023-02-28T08:25:03.551Z,4.65
2023-02-28T08:27:30.089Z,3.85
2023-02-28T08:29:56.731Z,3.10
2023-02-28T08:32:29.796Z,3.40
2023-02-28T08:34:56.669Z,22.85
2023-02-28T08:37:23.389Z,14.23
2023-02-28T08:39:53.327Z,5.57
2023-02-28T08:42:21.616Z,8.02
2023-02-28T08:44:48.176Z,4.00
2023-02-28T08:47:14.785Z,5.47
2023-02-28T08:49:41.403Z,4.45
2023-02-28T08:52:08.064Z,4.13
2023-02-28T08:54:34.678Z,4.70
2023-02-28T08:57:03.276Z,5.97
2023-02-28T08:59:30.388Z,3.05
2023-02-28T09:01:56.996Z,3.67
2023-02-28T09:04:25.288Z,4.30
2023-02-28T09:06:52.181Z,3.28
2023-02-28T09:09:18.743Z,2.85
2023-02-28T09:11:45.334Z,4.32
2023-02-28T09:14:13.228Z,1.80
2023-02-28T09:16:39.885Z,1.58
2023-02-28T09:19:06.604Z,3.58
2023-02-28T09:21:33.338Z,1.88
2023-02-28T09:23:59.875Z,2.25
2023-02-28T09:26:34.754Z,3.38
2023-02-28T09:29:09.173Z,2.17
2023-02-28T09:31:37.157Z,1.70
2023-02-28T09:34:05.012Z,2.10
2023-02-28T09:36:43.736Z,1.40
2023-02-28T09:39:12.295Z,1.23
2023-02-28T09:41:41.718Z,10.30
2023-02-28T09:44:13.818Z,12.73
2023-02-28T09:46:45.771Z,2.70
2023-02-28T09:49:15.569Z,7.10
2023-02-28T09:51:50.568Z,2.08
2023-02-28T09:54:19.641Z,2.10
2023-02-28T09:56:49.433Z,2.08
2023-02-28T09:59:30.359Z,2.03
2023-02-28T10:02:05.127Z,2.13
2023-02-28T10:04:46.241Z,1.73
2023-02-28T10:07:22.661Z,2.55
2023-02-28T10:09:56.187Z,4.47
2023-02-28T10:12:23.335Z,1.50
2023-02-28T10:14:53.648Z,3.13
2023-02-28T10:17:24.828Z,4.03
2023-02-28T10:19:59.431Z,3.58
2023-02-28T10:22:30.073Z,1.60
2023-02-28T10:24:59.108Z,1.60
2023-02-28T10:27:29.875Z,2.20
2023-02-28T10:29:58.368Z,2.17
2023-02-28T10:32:29.375Z,1.75
2023-02-28T10:35:00.315Z,5.68
2023-02-28T10:37:27.360Z,2.00
2023-02-28T10:39:54.444Z,3.30
2023-02-28T10:42:24.247Z,2.60
2023-02-28T10:45:05.155Z,1.75
2023-02-28T10:47:35.522Z,1.30
2023-02-28T10:50:02.595Z,2.28
2023-02-28T10:52:39.730Z,1.02
2023-02-28T10:55:21.373Z,0.90
2023-02-28T10:57:48.038Z,1.03
2023-02-28T11:00:17.425Z,1.70
2023-02-28T11:02:45.900Z,1.35
2023-02-28T11:05:28.093Z,0.82
2023-02-28T11:10:26.291Z,2.88
2023-02-28T11:12:56.181Z,1.35
2023-02-28T11:15:25.355Z,2.00
2023-02-28T11:17:58.319Z,1.80
2023-02-28T11:20:29.166Z,1.65
2023-02-28T11:22:58.249Z,3.92
2023-02-28T11:25:29.369Z,2.15
2023-02-28T11:27:57.695Z,2.78
2023-02-28T11:30:35.011Z,2.88
2023-02-28T11:33:21.989Z,2.55
2023-02-28T11:35:50.526Z,1.85
2023-02-28T11:38:17.189Z,1.63
2023-02-28T11:40:50.231Z,1.83
2023-02-28T11:43:31.257Z,3.88
2023-02-28T11:46:11.709Z,1.65
2023-02-28T11:48:53.594Z,1.77
2023-02-28T11:51:24.780Z,3.45
2023-02-28T11:54:19.083Z,1.77
2023-02-28T11:56:50.721Z,1.25
2023-02-28T11:59:48.100Z,1.70
2023-02-28T12:02:25.177Z,1.45
2023-02-28T12:05:07.129Z,1.52
2023-02-28T12:07:46.051Z,1.23
2023-02-28T12:10:22.946Z,2.65
2023-02-28T12:13:00.033Z,1.52
2023-02-28T12:15:52.850Z,2.88
2023-02-28T12:18:31.219Z,3.05
2023-02-28T12:21:06.214Z,1.80
2023-02-28T12:23:51.877Z,3.60
2023-02-28T12:26:24.697Z,2.92
2023-02-28T12:28:57.332Z,5.20
2023-02-28T12:31:30.731Z,2.72
2023-02-28T12:34:03.864Z,2.22
2023-02-28T12:36:31.875Z,2.70
2023-02-28T12:39:03.587Z,3.28
2023-02-28T12:41:37.400Z,2.95
2023-02-28T12:44:10.047Z,1.58
2023-02-28T12:46:42.352Z,1.77
2023-02-28T12:51:39.730Z,5.95
2023-02-28T12:54:15.460Z,2.97
2023-02-28T12:56:48.752Z,3.70
2023-02-28T12:59:24.296Z,4.95
2023-02-28T13:02:24.263Z,2.45
2023-02-28T13:05:02.769Z,3.80
2023-02-28T13:07:56.966Z,2.63
2023-02-28T13:10:23.925Z,2.00
2023-02-28T13:12:52.252Z,2.78
2023-02-28T13:15:21.014Z,1.60
2023-02-28T13:17:50.144Z,6.60
2023-02-28T13:20:19.502Z,2.20
2023-02-28T13:22:49.265Z,1.80
2023-02-28T13:25:51.397Z,3.90
2023-02-28T13:28:47.827Z,1.90
2023-02-28T13:31:14.967Z,5.45
2023-02-28T13:34:12.856Z,3.15
2023-02-28T13:36:39.537Z,2.33
2023-02-28T13:39:49.778Z,4.72
2023-02-28T13:42:35.595Z,4.35
2023-02-28T13:45:27.147Z,2.33
2023-02-28T13:47:55.897Z,2.35
2023-02-28T13:50:28.544Z,2.15
2023-02-28T13:53:07.737Z,2.92
2023-02-28T13:55:44.386Z,2.55
2023-02-28T13:58:26.783Z,2.92
2023-02-28T14:01:08.517Z,3.22
2023-02-28T14:03:52.289Z,1.80
2023-02-28T14:06:24.869Z,2.85
2023-02-28T14:08:56.929Z,1.70
2023-02-28T14:11:31.547Z,1.52
2023-02-28T14:13:58.721Z,2.60
2023-02-28T14:16:27.067Z,1.77
2023-02-28T14:18:58.878Z,3.08
2023-02-28T14:21:28.312Z,2.60
2023-02-28T14:24:30.943Z,2.75
2023-02-28T14:27:09.138Z,1.83
2023-02-28T14:30:03.047Z,4.03
2023-02-28T14:32:35.672Z,2.45
2023-02-28T14:35:13.784Z,2.50
2023-02-28T14:37:43.343Z,1.42
2023-02-28T14:40:16.217Z,4.55
2023-02-28T14:42:48.511Z,1.75
2023-02-28T14:45:19.461Z,1.50
2023-02-28T14:47:46.312Z,3.08
2023-02-28T14:50:19.406Z,4.47
2023-02-28T14:52:46.459Z,5.22
2023-02-28T14:55:15.911Z,1.50
2023-02-28T14:57:54.473Z,2.97
2023-02-28T15:00:24.474Z,1.60
2023-02-28T15:02:51.138Z,3.80
2023-02-28T15:05:24.290Z,1.88
2023-02-28T15:08:02.937Z,1.38
2023-02-28T15:10:29.880Z,4.35
2023-02-28T15:12:59.587Z,1.95
2023-02-28T15:15:40.551Z,1.77
2023-02-28T15:18:27.626Z,2.45
2023-02-28T15:20:54.968Z,1.98
2023-02-28T15:23:22.571Z,4.63
2023-02-28T15:25:50.086Z,3.35
2023-02-28T15:28:21.468Z,4.28
2023-02-28T15:30:53.596Z,2.47
2023-02-28T15:33:22.872Z,2.53
2023-02-28T15:35:50.478Z,4.55
2023-02-28T15:38:23.704Z,2.33
2023-02-28T15:40:53.133Z,2.95
2023-02-28T15:43:26.148Z,4.78
2023-02-28T15:45:55.963Z,4.05
2023-02-28T15:48:25.500Z,5.00
2023-02-28T15:50:54.749Z,2.92
2023-02-28T15:53:24.936Z,2.67
2023-02-28T15:55:59.731Z,1.75
2023-02-28T15:58:28.440Z,3.25
2023-02-28T16:01:05.654Z,2.72
2023-02-28T16:03:40.175Z,3.55
2023-02-28T16:06:24.615Z,2.28
2023-02-28T16:08:51.295Z,2.33
2023-02-28T16:11:19.580Z,3.50
2023-02-28T16:13:47.583Z,1.75
2023-02-28T16:16:16.942Z,2.45
2023-02-28T16:18:43.634Z,1.27
2023-02-28T16:21:10.193Z,3.20
2023-02-28T16:23:36.839Z,2.95
2023-02-28T16:26:04.563Z,4.20
2023-02-28T16:28:34.597Z,2.42
2023-02-28T16:31:04.553Z,1.95
2023-02-28T16:33:31.453Z,2.03
2023-02-28T16:35:58.727Z,2.40
2023-02-28T16:38:25.432Z,2.13
2023-02-28T16:41:01.031Z,2.28
2023-02-28T16:43:28.490Z,3.63
2023-02-28T16:45:56.430Z,2.17
2023-02-28T16:48:25.341Z,2.90
2023-02-28T16:50:52.486Z,2.65
2023-02-28T16:53:19.169Z,4.22
2023-02-28T16:55:46.021Z,2.28
2023-02-28T16:58:16.674Z,2.60
2023-02-28T17:00:43.271Z,2.53
2023-02-28T17:03:33.046Z,2.00
2023-02-28T17:06:00.737Z,3.58
2023-02-28T17:08:27.333Z,2.45
2023-02-28T17:10:53.955Z,2.75
2023-02-28T17:13:20.627Z,2.88
2023-02-28T17:15:48.569Z,1.90
2023-02-28T17:18:17.145Z,4.90
2023-02-28T17:20:45.496Z,3.33
2023-02-28T17:23:12.512Z,2.75
2023-02-28T17:25:39.226Z,2.47
2023-02-28T17:28:05.931Z,3.17
2023-02-28T17:30:35.187Z,2.38
2023-02-28T17:33:01.994Z,2.28
2023-02-28T17:35:28.797Z,2.17
2023-02-28T17:37:56.957Z,5.18
2023-02-28T17:40:24.739Z,3.13
2023-02-28T17:42:51.505Z,3.55
2023-02-28T17:45:18.593Z,2.92
2023-02-28T17:47:48.926Z,5.45
2023-02-28T17:50:19.715Z,4.05
2023-02-28T17:52:46.530Z,2.72
2023-02-28T17:55:14.574Z,3.15
2023-02-28T17:57:41.499Z,2.75
2023-02-28T18:00:09.758Z,4.50
2023-02-28T18:02:39.384Z,4.75
2023-02-28T18:05:07.539Z,5.20
2023-02-28T18:07:34.498Z,8.32
2023-02-28T18:10:01.384Z,7.68
2023-02-28T18:12:30.721Z,6.75
2023-02-28T18:14:57.492Z,4.80
2023-02-28T18:17:24.108Z,5.88
2023-02-28T18:19:50.783Z,5.90
2023-02-28T18:22:17.399Z,5.45
2023-02-28T18:24:44.036Z,5.68
2023-02-28T18:27:10.673Z,9.38
2023-02-28T18:29:40.681Z,7.28
2023-02-28T18:32:07.692Z,7.40
2023-02-28T18:34:34.728Z,5.47
2023-02-28T18:37:03.317Z,9.38
2023-02-28T18:39:30.836Z,6.95
2023-02-28T18:41:57.536Z,5.85
2023-02-28T18:44:24.156Z,6.07
2023-02-28T18:46:52.425Z,6.15
2023-02-28T18:49:19.733Z,5.63
2023-02-28T18:51:46.990Z,7.30
2023-02-28T18:54:15.157Z,8.70
2023-02-28T18:56:42.389Z,7.65
2023-02-28T18:59:09.266Z,8.57
2023-02-28T19:01:35.946Z,9.43
2023-02-28T19:04:04.818Z,11.48
2023-02-28T19:06:33.197Z,10.57
2023-02-28T19:09:01.822Z,10.48
2023-02-28T19:11:28.885Z,11.50
2023-02-28T19:13:56.512Z,9.98
2023-02-28T19:16:24.325Z,9.77
2023-02-28T19:18:51.441Z,7.57
2023-02-28T19:21:21.700Z,12.00
2023-02-28T19:23:48.730Z,9.05
2023-02-28T19:26:17.984Z,9.23
2023-02-28T19:28:44.687Z,7.57
2023-02-28T19:31:13.136Z,6.10
2023-02-28T19:33:39.825Z,5.30
2023-02-28T19:36:07.186Z,5.72
2023-02-28T19:38:35.237Z,9.20
2023-02-28T19:41:02.986Z,7.63
2023-02-28T19:43:29.875Z,7.72
2023-02-28T19:45:57.330Z,5.97
2023-02-28T19:48:25.628Z,6.78
2023-02-28T19:50:57.050Z,5.53
2023-02-28T19:53:23.784Z,4.80
2023-02-28T19:55:51.760Z,6.68
2023-02-28T19:58:18.417Z,5.88
2023-02-28T20:00:45.012Z,6.60
2023-02-28T20:03:11.646Z,7.32
2023-02-28T20:05:38.236Z,6.43
2023-02-28T20:08:05.016Z,9.70
2023-02-28T20:10:33.182Z,10.10
2023-02-28T20:13:01.581Z,8.30
2023-02-28T20:15:28.522Z,8.20
2023-02-28T20:17:55.092Z,6.10
2023-02-28T20:20:21.669Z,7.18
2023-02-28T20:22:48.297Z,5.53
2023-02-28T20:25:15.488Z,7.63
2023-02-28T20:27:42.236Z,6.40
2023-02-28T20:30:11.866Z,5.90
2023-02-28T20:32:38.537Z,6.53
2023-02-28T20:35:06.229Z,7.75
2023-02-28T20:37:32.826Z,8.30
2023-02-28T20:39:59.416Z,11.68
2023-02-28T20:42:26.068Z,10.98
2023-02-28T20:44:52.721Z,8.77
2023-02-28T20:47:20.708Z,7.03
2023-02-28T20:49:47.307Z,7.55
2023-02-28T20:52:14.005Z,11.60
2023-02-28T20:54:40.612Z,10.73
2023-02-28T20:57:07.469Z,13.48
2023-02-28T20:59:34.121Z,12.82
2023-02-28T21:02:00.817Z,11.90
2023-02-28T21:04:28.753Z,11.40
2023-02-28T21:06:55.408Z,13.63
2023-02-28T21:09:22.085Z,10.05
2023-02-28T21:11:48.714Z,10.30
2023-02-28T21:14:17.827Z,10.23
2023-02-28T21:16:44.857Z,7.88
2023-02-28T21:19:11.848Z,9.80
2023-02-28T21:21:42.387Z,10.68
2023-02-28T21:24:09.741Z,7.65
2023-02-28T21:26:36.483Z,11.55
2023-02-28T21:29:03.496Z,9.68
2023-02-28T21:31:32.636Z,8.80
2023-02-28T21:34:01.227Z,10.75
2023-02-28T21:36:30.103Z,7.22
2023-02-28T21:39:00.155Z,5.90
2023-02-28T21:41:27.136Z,7.93
2023-02-28T21:43:55.491Z,8.45
2023-02-28T21:46:25.007Z,10.55
2023-02-28T21:48:52.098Z,8.20
2023-02-28T21:51:20.595Z,7.65
2023-02-28T21:53:48.030Z,6.95
2023-02-28T21:56:18.197Z,8.20
2023-02-28T21:58:45.080Z,6.13
2023-02-28T22:01:14.433Z,8.85
2023-02-28T22:03:42.212Z,8.45
2023-02-28T22:06:10.629Z,5.53
2023-02-28T22:08:37.541Z,5.75
2023-02-28T22:11:04.689Z,6.07
2023-02-28T22:13:32.749Z,7.55
2023-02-28T22:16:02.507Z,6.10
2023-02-28T22:18:29.183Z,5.70
2023-02-28T22:20:56.241Z,6.97
2023-02-28T22:23:22.987Z,7.63
2023-02-28T22:25:49.651Z,5.65
2023-02-28T22:28:16.403Z,6.97
2023-02-28T22:30:44.354Z,8.35
2023-02-28T22:33:11.016Z,12.25
2023-02-28T22:35:37.882Z,8.82
2023-02-28T22:38:04.697Z,8.60
2023-02-28T22:40:31.491Z,8.73
2023-02-28T22:42:58.253Z,9.70
2023-02-28T22:45:25.230Z,6.57
2023-02-28T22:47:53.362Z,8.00
2023-02-28T22:50:19.999Z,8.60
2023-02-28T22:52:46.757Z,6.63
2023-02-28T22:55:13.476Z,7.05
2023-02-28T22:57:40.276Z,8.95
2023-02-28T23:00:09.277Z,6.28
2023-02-28T23:02:36.145Z,5.85
2023-02-28T23:05:04.636Z,6.18
2023-02-28T23:07:31.450Z,5.47
2023-02-28T23:09:58.327Z,5.47
2023-02-28T23:12:25.380Z,7.72
2023-02-28T23:14:53.330Z,6.80
2023-02-28T23:17:20.078Z,7.05
2023-02-28T23:19:46.843Z,7.28
2023-02-28T23:22:14.953Z,8.63
2023-02-28T23:24:41.770Z,9.13
2023-02-28T23:27:08.421Z,7.38
2023-02-28T23:29:35.813Z,8.13
2023-02-28T23:32:03.547Z,7.97
2023-02-28T23:34:30.201Z,8.82
2023-02-28T23:36:59.136Z,8.25
2023-02-28T23:39:29.039Z,6.30
2023-02-28T23:41:56.174Z,7.35
2023-02-28T23:44:23.063Z,7.28
2023-02-28T23:46:51.578Z,6.43
2023-02-28T23:49:19.702Z,9.27
2023-02-28T23:51:46.773Z,7.78
2023-02-28T23:54:13.363Z,9.45
2023-02-28T23:56:41.573Z,9.07
2023-02-28T23:59:08.380Z,10.18
